Station Historical Data
Daily Summary for April 23, 2017 Units:  Both    English   Metric
« Previous Day
Next Day »
Daily Weekly Monthly Yearly Custom
  High: Low: Average:
Temperature: 62.6 °F /  17 °C 33.0 °F /  0.6 °C 48.2 °F /  9 °C
Dew Point: 40.9 °F /  4.9 °C 23.6 °F /  -4.7 °C 32.7 °F /  0.4 °C
Humidity: 91% 24% 61%
Wind Speed: 9.0mph /  14.5km/h - 2.3mph /  3.7km/h
Wind Gust: 13.0mph /  20.9km/h - -
Wind- - SW
Pressure: 30.15 in /  1020.9 hPa 30.06 in /  1017.8 hPa -
Precipitation: 0.00 in /  0 mm    
Historical Graphs
 
 
Tabular Data for April 23, 2017
Time Temperature Dew Point Pressure Wind Wind Speed Wind Gust Humidity Rainfall Rate (Hourly)
00:04 38.7 °F /  3.7 °C 34.3 °F /  1.3 °C 30.13in /  1020.2hPa Calm     84% 0.00in /  0mm
00:09 38.6 °F /  3.7 °C 34.2 °F /  1.2 °C 30.13in /  1020.2hPa Calm     84% 0.00in /  0mm
00:14 38.8 °F /  3.8 °C 34.7 °F /  1.5 °C 30.14in /  1020.5hPa Calm     85% 0.00in /  0mm
00:19 38.6 °F /  3.7 °C 34.5 °F /  1.4 °C 30.14in /  1020.5hPa Calm     85% 0.00in /  0mm
00:24 38.6 °F /  3.7 °C 34.5 °F /  1.4 °C 30.14in /  1020.5hPa Calm   2.0mph /  3.2km/h 85% 0.00in /  0mm
00:29 38.9 °F /  3.8 °C 35.1 °F /  1.7 °C 30.14in /  1020.5hPa Calm   2.0mph /  3.2km/h 86% 0.00in /  0mm
00:34 38.8 °F /  3.8 °C 34.7 °F /  1.5 °C 30.14in /  1020.5hPa Calm   2.0mph /  3.2km/h 85% 0.00in /  0mm
00:39 39.0 °F /  3.9 °C 35.2 °F /  1.8 °C 30.14in /  1020.5hPa Calm   1.0mph /  1.6km/h 86% 0.00in /  0mm
00:49 38.7 °F /  3.7 °C 34.9 °F /  1.6 °C 30.14in /  1020.5hPa Calm     86% 0.00in /  0mm
00:54 38.5 °F /  3.6 °C 34.7 °F /  1.5 °C 30.14in /  1020.5hPa Calm   2.0mph /  3.2km/h 86% 0.00in /  0mm
00:59 38.3 °F /  3.5 °C 34.8 °F /  1.6 °C 30.14in /  1020.5hPa Calm   2.0mph /  3.2km/h 87% 0.00in /  0mm
01:04 38.3 °F /  3.5 °C 34.8 °F /  1.6 °C 30.14in /  1020.5hPa Calm     87% 0.00in /  0mm
01:09 38.3 °F /  3.5 °C 34.8 °F /  1.6 °C 30.14in /  1020.5hPa Calm     87% 0.00in /  0mm
01:14 38.1 °F /  3.4 °C 34.6 °F /  1.4 °C 30.14in /  1020.5hPa Calm     87% 0.00in /  0mm
01:19 37.9 °F /  3.3 °C 34.7 °F /  1.5 °C 30.14in /  1020.5hPa Calm     88% 0.00in /  0mm
01:24 37.7 °F /  3.2 °C 34.5 °F /  1.4 °C 30.14in /  1020.5hPa Calm     88% 0.00in /  0mm
01:29 37.4 °F /  3 °C 34.2 °F /  1.2 °C 30.14in /  1020.5hPa Calm     88% 0.00in /  0mm
01:34 37.1 °F /  2.8 °C 33.9 °F /  1.1 °C 30.14in /  1020.5hPa Calm     88% 0.00in /  0mm
01:39 36.9 °F /  2.7 °C 33.7 °F /  0.9 °C 30.14in /  1020.5hPa Calm     88% 0.00in /  0mm
01:44 36.7 °F /  2.6 °C 33.8 °F /  1 °C 30.14in /  1020.5hPa Calm     89% 0.00in /  0mm
01:49 36.7 °F /  2.6 °C 33.8 °F /  1 °C 30.14in /  1020.5hPa Calm     89% 0.00in /  0mm
01:54 36.4 °F /  2.4 °C 33.5 °F /  0.8 °C 30.14in /  1020.5hPa Calm     89% 0.00in /  0mm
01:59 36.4 °F /  2.4 °C 33.5 °F /  0.8 °C 30.14in /  1020.5hPa Calm     89% 0.00in /  0mm
02:04 36.2 °F /  2.3 °C 33.5 °F /  0.8 °C 30.14in /  1020.5hPa Calm     90% 0.00in /  0mm
02:09 36.1 °F /  2.3 °C 33.2 °F /  0.7 °C 30.14in /  1020.5hPa Calm     89% 0.00in /  0mm
02:14 36.0 °F /  2.2 °C 33.4 °F /  0.8 °C 30.13in /  1020.2hPa Calm     90% 0.00in /  0mm
02:19 35.9 °F /  2.2 °C 33.0 °F /  0.6 °C 30.13in /  1020.2hPa Calm     89% 0.00in /  0mm
02:24 35.5 °F /  1.9 °C 32.9 °F /  0.5 °C 30.13in /  1020.2hPa Calm     90% 0.00in /  0mm
02:29 35.4 °F /  1.9 °C 32.8 °F /  0.4 °C 30.13in /  1020.2hPa Calm     90% 0.00in /  0mm
02:34 35.4 °F /  1.9 °C 32.8 °F /  0.4 °C 30.13in /  1020.2hPa Calm     90% 0.00in /  0mm
02:39 35.3 °F /  1.8 °C 32.7 °F /  0.4 °C 30.13in /  1020.2hPa Calm     90% 0.00in /  0mm
02:44 35.2 °F /  1.8 °C 32.6 °F /  0.3 °C 30.13in /  1020.2hPa Calm     90% 0.00in /  0mm
02:49 35.2 °F /  1.8 °C 32.6 °F /  0.3 °C 30.12in /  1019.9hPa Calm     90% 0.00in /  0mm
02:54 35.1 °F /  1.7 °C 32.5 °F /  0.3 °C 30.12in /  1019.9hPa Calm     90% 0.00in /  0mm
02:59 35.1 °F /  1.7 °C 32.5 °F /  0.3 °C 30.12in /  1019.9hPa Calm     90% 0.00in /  0mm
03:04 35.1 °F /  1.7 °C 32.5 °F /  0.3 °C 30.12in /  1019.9hPa Calm     90% 0.00in /  0mm
03:09 35.1 °F /  1.7 °C 32.7 °F /  0.4 °C 30.12in /  1019.9hPa Calm     91% 0.00in /  0mm
03:14 34.8 °F /  1.6 °C 32.2 °F /  0.1 °C 30.11in /  1019.5hPa Calm     90% 0.00in /  0mm
03:19 34.8 °F /  1.6 °C 32.4 °F /  0.2 °C 30.11in /  1019.5hPa Calm     91% 0.00in /  0mm
03:24 34.6 °F /  1.4 °C 32.0 °F /  0 °C 30.12in /  1019.9hPa Calm     90% 0.00in /  0mm
03:29 34.7 °F /  1.5 °C 32.3 °F /  0.2 °C 30.11in /  1019.5hPa Calm     91% 0.00in /  0mm
03:34 34.6 °F /  1.4 °C 32.2 °F /  0.1 °C 30.11in /  1019.5hPa Calm     91% 0.00in /  0mm
03:39 34.5 °F /  1.4 °C 31.9 °F /  -0.1 °C 30.11in /  1019.5hPa Calm     90% 0.00in /  0mm
03:44 34.5 °F /  1.4 °C 32.1 °F /  0.1 °C 30.11in /  1019.5hPa Calm     91% 0.00in /  0mm
03:49 34.3 °F /  1.3 °C 31.7 °F /  -0.2 °C 30.11in /  1019.5hPa Calm     90% 0.00in /  0mm
03:54 34.1 °F /  1.2 °C 31.7 °F /  -0.2 °C 30.11in /  1019.5hPa Calm     91% 0.00in /  0mm
03:59 34.0 °F /  1.1 °C 31.6 °F /  -0.2 °C 30.11in /  1019.5hPa Calm     91% 0.00in /  0mm
04:04 34.0 °F /  1.1 °C 31.6 °F /  -0.2 °C 30.11in /  1019.5hPa Calm     91% 0.00in /  0mm
04:09 34.0 °F /  1.1 °C 31.4 °F /  -0.3 °C 30.11in /  1019.5hPa Calm     90% 0.00in /  0mm
04:14 33.9 °F /  1.1 °C 31.6 °F /  -0.2 °C 30.11in /  1019.5hPa Calm     91% 0.00in /  0mm
04:19 33.7 °F /  0.9 °C 31.4 °F /  -0.3 °C 30.11in /  1019.5hPa Calm     91% 0.00in /  0mm
04:24 33.7 °F /  0.9 °C 31.4 °F /  -0.3 °C 30.11in /  1019.5hPa Calm     91% 0.00in /  0mm
04:29 33.6 °F /  0.9 °C 31.3 °F /  -0.4 °C 30.11in /  1019.5hPa Calm     91% 0.00in /  0mm
04:34 33.6 °F /  0.9 °C 31.3 °F /  -0.4 °C 30.11in /  1019.5hPa Calm     91% 0.00in /  0mm
04:39 33.5 °F /  0.8 °C 31.2 °F /  -0.4 °C 30.11in /  1019.5hPa Calm     91% 0.00in /  0mm
04:44 33.6 °F /  0.9 °C 31.3 °F /  -0.4 °C 30.11in /  1019.5hPa Calm     91% 0.00in /  0mm
04:49 33.8 °F /  1 °C 31.5 °F /  -0.3 °C 30.11in /  1019.5hPa Calm     91% 0.00in /  0mm
04:54 33.8 °F /  1 °C 31.5 °F /  -0.3 °C 30.11in /  1019.5hPa Calm     91% 0.00in /  0mm
04:59 33.8 °F /  1 °C 31.5 °F /  -0.3 °C 30.11in /  1019.5hPa Calm     91% 0.00in /  0mm
05:04 33.9 °F /  1.1 °C 31.6 °F /  -0.2 °C 30.11in /  1019.5hPa Calm     91% 0.00in /  0mm
05:09 33.5 °F /  0.8 °C 30.9 °F /  -0.6 °C 30.12in /  1019.9hPa Calm     90% 0.00in /  0mm
05:14 33.5 °F /  0.8 °C 31.2 °F /  -0.4 °C 30.11in /  1019.5hPa Calm     91% 0.00in /  0mm
05:19 33.4 °F /  0.8 °C 31.1 °F /  -0.5 °C 30.12in /  1019.9hPa Calm     91% 0.00in /  0mm
05:24 33.5 °F /  0.8 °C 31.2 °F /  -0.4 °C 30.12in /  1019.9hPa Calm     91% 0.00in /  0mm
05:29 33.5 °F /  0.8 °C 30.9 °F /  -0.6 °C 30.11in /  1019.5hPa Calm     90% 0.00in /  0mm
05:34 33.6 °F /  0.9 °C 31.3 °F /  -0.4 °C 30.11in /  1019.5hPa Calm     91% 0.00in /  0mm
05:39 33.7 °F /  0.9 °C 31.1 °F /  -0.5 °C 30.12in /  1019.9hPa Calm     90% 0.00in /  0mm
05:44 33.5 °F /  0.8 °C 30.9 °F /  -0.6 °C 30.12in /  1019.9hPa Calm     90% 0.00in /  0mm
05:49 33.6 °F /  0.9 °C 31.0 °F /  -0.6 °C 30.12in /  1019.9hPa Calm     90% 0.00in /  0mm
05:54 33.5 °F /  0.8 °C 30.9 °F /  -0.6 °C 30.12in /  1019.9hPa Calm     90% 0.00in /  0mm
05:59 33.5 °F /  0.8 °C 30.9 °F /  -0.6 °C 30.12in /  1019.9hPa Calm     90% 0.00in /  0mm
06:04 33.5 °F /  0.8 °C 30.9 °F /  -0.6 °C 30.12in /  1019.9hPa Calm     90% 0.00in /  0mm
06:09 33.5 °F /  0.8 °C 30.9 °F /  -0.6 °C 30.12in /  1019.9hPa Calm     90% 0.00in /  0mm
06:14 33.3 °F /  0.7 °C 30.7 °F /  -0.7 °C 30.12in /  1019.9hPa Calm     90% 0.00in /  0mm
06:19 33.3 °F /  0.7 °C 30.7 °F /  -0.7 °C 30.12in /  1019.9hPa Calm     90% 0.00in /  0mm
06:24 33.1 °F /  0.6 °C 30.5 °F /  -0.8 °C 30.13in /  1020.2hPa Calm     90% 0.00in /  0mm
06:29 33.0 °F /  0.6 °C 30.4 °F /  -0.9 °C 30.13in /  1020.2hPa Calm     90% 0.00in /  0mm
06:34 33.0 °F /  0.6 °C 30.4 °F /  -0.9 °C 30.14in /  1020.5hPa Calm     90% 0.00in /  0mm
06:39 33.0 °F /  0.6 °C 30.4 °F /  -0.9 °C 30.14in /  1020.5hPa Calm     90% 0.00in /  0mm
06:44 33.1 °F /  0.6 °C 30.8 °F /  -0.7 °C 30.14in /  1020.5hPa Calm     91% 0.00in /  0mm
06:49 33.3 °F /  0.7 °C 31.0 °F /  -0.6 °C 30.14in /  1020.5hPa Calm     91% 0.00in /  0mm
06:54 33.5 °F /  0.8 °C 31.2 °F /  -0.4 °C 30.14in /  1020.5hPa Calm     91% 0.00in /  0mm
06:59 33.9 °F /  1.1 °C 31.6 °F /  -0.2 °C 30.14in /  1020.5hPa Calm     91% 0.00in /  0mm
07:04 34.4 °F /  1.3 °C 32.0 °F /  0 °C 30.14in /  1020.5hPa Calm     91% 0.00in /  0mm
07:09 34.8 °F /  1.6 °C 32.2 °F /  0.1 °C 30.15in /  1020.9hPa Calm     90% 0.00in /  0mm
07:14 35.3 °F /  1.8 °C 32.7 °F /  0.4 °C 30.15in /  1020.9hPa Calm     90% 0.00in /  0mm
07:19 35.6 °F /  2 °C 33.0 °F /  0.6 °C 30.15in /  1020.9hPa Calm     90% 0.00in /  0mm
07:24 35.9 °F /  2.2 °C 33.0 °F /  0.6 °C 30.15in /  1020.9hPa Calm     89% 0.00in /  0mm
07:29 36.4 °F /  2.4 °C 33.5 °F /  0.8 °C 30.15in /  1020.9hPa Calm     89% 0.00in /  0mm
07:34 36.7 °F /  2.6 °C 33.5 °F /  0.8 °C 30.15in /  1020.9hPa SSW 2.0mph /  3.2km/h 4.0mph /  6.4km/h 88% 0.00in /  0mm
07:39 37.1 °F /  2.8 °C 33.9 °F /  1.1 °C 30.15in /  1020.9hPa SSW 1.0mph /  1.6km/h 4.0mph /  6.4km/h 88% 0.00in /  0mm
07:44 37.6 °F /  3.1 °C 34.1 °F /  1.2 °C 30.15in /  1020.9hPa SSW 3.0mph /  4.8km/h 3.0mph /  4.8km/h 87% 0.00in /  0mm
07:49 38.0 °F /  3.3 °C 34.5 °F /  1.4 °C 30.15in /  1020.9hPa South 2.0mph /  3.2km/h 4.0mph /  6.4km/h 87% 0.00in /  0mm
07:54 38.6 °F /  3.7 °C 34.5 °F /  1.4 °C 30.15in /  1020.9hPa South 2.0mph /  3.2km/h 4.0mph /  6.4km/h 85% 0.00in /  0mm
07:59 39.1 °F /  3.9 °C 35.0 °F /  1.7 °C 30.15in /  1020.9hPa South 2.0mph /  3.2km/h 5.0mph /  8km/h 85% 0.00in /  0mm
08:04 39.7 °F /  4.3 °C 35.0 °F /  1.7 °C 30.15in /  1020.9hPa South 3.0mph /  4.8km/h 5.0mph /  8km/h 83% 0.00in /  0mm
08:09 40.4 °F /  4.7 °C 35.3 °F /  1.8 °C 30.15in /  1020.9hPa SSW 2.0mph /  3.2km/h 5.0mph /  8km/h 82% 0.00in /  0mm
08:14 41.1 °F /  5.1 °C 36.0 °F /  2.2 °C 30.15in /  1020.9hPa South 5.0mph /  8km/h 5.0mph /  8km/h 82% 0.00in /  0mm
08:19 41.7 °F /  5.4 °C 36.3 °F /  2.4 °C 30.15in /  1020.9hPa SSW 3.0mph /  4.8km/h 5.0mph /  8km/h 81% 0.00in /  0mm
08:24 42.5 °F /  5.8 °C 36.4 °F /  2.4 °C 30.15in /  1020.9hPa SSW 2.0mph /  3.2km/h 5.0mph /  8km/h 79% 0.00in /  0mm
08:29 43.2 °F /  6.2 °C 36.8 °F /  2.7 °C 30.15in /  1020.9hPa SW 2.0mph /  3.2km/h 6.0mph /  9.7km/h 78% 0.00in /  0mm
08:34 44.1 °F /  6.7 °C 37.7 °F /  3.2 °C 30.15in /  1020.9hPa SW 2.0mph /  3.2km/h 6.0mph /  9.7km/h 78% 0.00in /  0mm
08:39 44.8 °F /  7.1 °C 37.7 °F /  3.2 °C 30.15in /  1020.9hPa WSW 4.0mph /  6.4km/h 6.0mph /  9.7km/h 76% 0.00in /  0mm
08:44 45.7 °F /  7.6 °C 37.9 °F /  3.3 °C 30.15in /  1020.9hPa WSW 2.0mph /  3.2km/h 7.0mph /  11.3km/h 74% 0.00in /  0mm
08:49 46.2 °F /  7.9 °C 37.7 °F /  3.2 °C 30.15in /  1020.9hPa SSW 5.0mph /  8km/h 8.0mph /  12.9km/h 72% 0.00in /  0mm
08:54 46.3 °F /  7.9 °C 37.4 °F /  3 °C 30.15in /  1020.9hPa SW 2.0mph /  3.2km/h 9.0mph /  14.5km/h 71% 0.00in /  0mm
08:59 46.9 °F /  8.3 °C 38.3 °F /  3.5 °C 30.15in /  1020.9hPa SSW 7.0mph /  11.3km/h 7.0mph /  11.3km/h 72% 0.00in /  0mm
09:04 47.1 °F /  8.4 °C 37.8 °F /  3.2 °C 30.15in /  1020.9hPa SSW 5.0mph /  8km/h 9.0mph /  14.5km/h 70% 0.00in /  0mm
09:09 47.5 °F /  8.6 °C 38.6 °F /  3.7 °C 30.15in /  1020.9hPa WSW 3.0mph /  4.8km/h 8.0mph /  12.9km/h 71% 0.00in /  0mm
09:14 48.3 °F /  9.1 °C 38.6 °F /  3.7 °C 30.15in /  1020.9hPa WSW 3.0mph /  4.8km/h 6.0mph /  9.7km/h 69% 0.00in /  0mm
09:19 49.0 °F /  9.4 °C 38.5 °F /  3.6 °C 30.15in /  1020.9hPa SW 4.0mph /  6.4km/h 8.0mph /  12.9km/h 67% 0.00in /  0mm
09:24 48.9 °F /  9.4 °C 38.0 °F /  3.3 °C 30.15in /  1020.9hPa WSW 5.0mph /  8km/h 10.0mph /  16.1km/h 66% 0.00in /  0mm
09:29 49.0 °F /  9.4 °C 37.3 °F /  2.9 °C 30.15in /  1020.9hPa WSW 5.0mph /  8km/h 10.0mph /  16.1km/h 64% 0.00in /  0mm
09:34 49.7 °F /  9.8 °C 38.8 °F /  3.8 °C 30.15in /  1020.9hPa WSW 5.0mph /  8km/h 9.0mph /  14.5km/h 66% 0.00in /  0mm
09:44 50.4 °F /  10.2 °C 38.7 °F /  3.7 °C 30.15in /  1020.9hPa SW 5.0mph /  8km/h 8.0mph /  12.9km/h 64% 0.00in /  0mm
09:49 50.6 °F /  10.3 °C 38.5 °F /  3.6 °C 30.15in /  1020.9hPa WSW 5.0mph /  8km/h 7.0mph /  11.3km/h 63% 0.00in /  0mm
09:54 51.1 °F /  10.6 °C 38.5 °F /  3.6 °C 30.15in /  1020.9hPa West 6.0mph /  9.7km/h 8.0mph /  12.9km/h 62% 0.00in /  0mm
09:59 51.4 °F /  10.8 °C 39.2 °F /  4 °C 30.14in /  1020.5hPa South 7.0mph /  11.3km/h 8.0mph /  12.9km/h 63% 0.00in /  0mm
10:04 51.5 °F /  10.8 °C 38.9 °F /  3.8 °C 30.14in /  1020.5hPa South 9.0mph /  14.5km/h 11.0mph /  17.7km/h 62% 0.00in /  0mm
10:09 51.7 °F /  10.9 °C 38.7 °F /  3.7 °C 30.14in /  1020.5hPa South 4.0mph /  6.4km/h 10.0mph /  16.1km/h 61% 0.00in /  0mm
10:14 52.2 °F /  11.2 °C 39.6 °F /  4.2 °C 30.14in /  1020.5hPa SW 5.0mph /  8km/h 9.0mph /  14.5km/h 62% 0.00in /  0mm
10:19 52.4 °F /  11.3 °C 38.9 °F /  3.8 °C 30.14in /  1020.5hPa SW 5.0mph /  8km/h 9.0mph /  14.5km/h 60% 0.00in /  0mm
10:24 53.0 °F /  11.7 °C 39.5 °F /  4.2 °C 30.15in /  1020.9hPa WSW 5.0mph /  8km/h 11.0mph /  17.7km/h 60% 0.00in /  0mm
10:29 53.1 °F /  11.7 °C 40.0 °F /  4.4 °C 30.15in /  1020.9hPa WSW 5.0mph /  8km/h 11.0mph /  17.7km/h 61% 0.00in /  0mm
10:34 53.5 °F /  11.9 °C 38.6 °F /  3.7 °C 30.15in /  1020.9hPa WSW 5.0mph /  8km/h 11.0mph /  17.7km/h 57% 0.00in /  0mm
10:39 53.5 °F /  11.9 °C 39.1 °F /  3.9 °C 30.14in /  1020.5hPa West 5.0mph /  8km/h 9.0mph /  14.5km/h 58% 0.00in /  0mm
10:44 53.1 °F /  11.7 °C 37.8 °F /  3.2 °C 30.14in /  1020.5hPa WSW 4.0mph /  6.4km/h 10.0mph /  16.1km/h 56% 0.00in /  0mm
10:49 53.3 °F /  11.8 °C 38.4 °F /  3.6 °C 30.14in /  1020.5hPa SW 6.0mph /  9.7km/h 9.0mph /  14.5km/h 57% 0.00in /  0mm
10:54 53.8 °F /  12.1 °C 39.8 °F /  4.3 °C 30.14in /  1020.5hPa SW 7.0mph /  11.3km/h 11.0mph /  17.7km/h 59% 0.00in /  0mm
10:59 54.0 °F /  12.2 °C 40.0 °F /  4.4 °C 30.14in /  1020.5hPa WSW 3.0mph /  4.8km/h 8.0mph /  12.9km/h 59% 0.00in /  0mm
11:04 54.7 °F /  12.6 °C 40.2 °F /  4.6 °C 30.14in /  1020.5hPa WSW 4.0mph /  6.4km/h 8.0mph /  12.9km/h 58% 0.00in /  0mm
11:09 54.6 °F /  12.6 °C 38.7 °F /  3.7 °C 30.14in /  1020.5hPa SW 6.0mph /  9.7km/h 8.0mph /  12.9km/h 55% 0.00in /  0mm
11:14 54.8 °F /  12.7 °C 38.9 °F /  3.8 °C 30.14in /  1020.5hPa SW 3.0mph /  4.8km/h 9.0mph /  14.5km/h 55% 0.00in /  0mm
11:19 55.2 °F /  12.9 °C 38.8 °F /  3.8 °C 30.14in /  1020.5hPa WSW 5.0mph /  8km/h 9.0mph /  14.5km/h 54% 0.00in /  0mm
11:29 55.9 °F /  13.3 °C 40.9 °F /  4.9 °C 30.14in /  1020.5hPa WSW 4.0mph /  6.4km/h 9.0mph /  14.5km/h 57% 0.00in /  0mm
11:34 56.5 °F /  13.6 °C 39.6 °F /  4.2 °C 30.14in /  1020.5hPa West 4.0mph /  6.4km/h 9.0mph /  14.5km/h 53% 0.00in /  0mm
11:39 55.6 °F /  13.1 °C 39.2 °F /  4 °C 30.14in /  1020.5hPa West 5.0mph /  8km/h 10.0mph /  16.1km/h 54% 0.00in /  0mm
11:44 56.6 °F /  13.7 °C 40.1 °F /  4.5 °C 30.14in /  1020.5hPa West 5.0mph /  8km/h 9.0mph /  14.5km/h 54% 0.00in /  0mm
11:49 56.4 °F /  13.6 °C 38.5 °F /  3.6 °C 30.14in /  1020.5hPa West 5.0mph /  8km/h 10.0mph /  16.1km/h 51% 0.00in /  0mm
11:54 56.5 °F /  13.6 °C 38.1 °F /  3.4 °C 30.14in /  1020.5hPa SW 2.0mph /  3.2km/h 11.0mph /  17.7km/h 50% 0.00in /  0mm
11:59 56.6 °F /  13.7 °C 38.7 °F /  3.7 °C 30.13in /  1020.2hPa WSW 9.0mph /  14.5km/h 12.0mph /  19.3km/h 51% 0.00in /  0mm
12:04 57.0 °F /  13.9 °C 39.5 °F /  4.2 °C 30.14in /  1020.5hPa West 2.0mph /  3.2km/h 10.0mph /  16.1km/h 52% 0.00in /  0mm
12:09 57.5 °F /  14.2 °C 37.4 °F /  3 °C 30.13in /  1020.2hPa WSW 6.0mph /  9.7km/h 9.0mph /  14.5km/h 47% 0.00in /  0mm
12:14 57.6 °F /  14.2 °C 39.6 °F /  4.2 °C 30.13in /  1020.2hPa WSW 4.0mph /  6.4km/h 9.0mph /  14.5km/h 51% 0.00in /  0mm
12:19 58.2 °F /  14.6 °C 38.1 °F /  3.4 °C 30.13in /  1020.2hPa WSW 5.0mph /  8km/h 10.0mph /  16.1km/h 47% 0.00in /  0mm
12:24 58.0 °F /  14.4 °C 36.2 °F /  2.3 °C 30.13in /  1020.2hPa WSW 6.0mph /  9.7km/h 11.0mph /  17.7km/h 44% 0.00in /  0mm
12:29 57.8 °F /  14.3 °C 36.0 °F /  2.2 °C 30.13in /  1020.2hPa SW 8.0mph /  12.9km/h 11.0mph /  17.7km/h 44% 0.00in /  0mm
12:34 58.2 °F /  14.6 °C 35.8 °F /  2.1 °C 30.13in /  1020.2hPa SW 7.0mph /  11.3km/h 13.0mph /  20.9km/h 43% 0.00in /  0mm
12:39 58.1 °F /  14.5 °C 36.9 °F /  2.7 °C 30.12in /  1019.9hPa WSW 6.0mph /  9.7km/h 9.0mph /  14.5km/h 45% 0.00in /  0mm
12:44 59.2 °F /  15.1 °C 36.1 °F /  2.3 °C 30.12in /  1019.9hPa WSW 5.0mph /  8km/h 10.0mph /  16.1km/h 42% 0.00in /  0mm
12:49 59.1 °F /  15.1 °C 36.0 °F /  2.2 °C 30.12in /  1019.9hPa SW 6.0mph /  9.7km/h 11.0mph /  17.7km/h 42% 0.00in /  0mm
12:54 58.6 °F /  14.8 °C 33.7 °F /  0.9 °C 30.12in /  1019.9hPa WSW 6.0mph /  9.7km/h 13.0mph /  20.9km/h 39% 0.00in /  0mm
12:59 58.8 °F /  14.9 °C 33.2 °F /  0.7 °C 30.12in /  1019.9hPa WSW 7.0mph /  11.3km/h 13.0mph /  20.9km/h 38% 0.00in /  0mm
13:04 59.3 °F /  15.2 °C 35.6 °F /  2 °C 30.11in /  1019.5hPa SW 6.0mph /  9.7km/h 12.0mph /  19.3km/h 41% 0.00in /  0mm
13:09 59.9 °F /  15.5 °C 35.5 °F /  1.9 °C 30.11in /  1019.5hPa SW 7.0mph /  11.3km/h 10.0mph /  16.1km/h 40% 0.00in /  0mm
13:14 60.0 °F /  15.6 °C 30.8 °F /  -0.7 °C 30.11in /  1019.5hPa SW 5.0mph /  8km/h 13.0mph /  20.9km/h 33% 0.00in /  0mm
13:19 59.4 °F /  15.2 °C 31.0 °F /  -0.6 °C 30.11in /  1019.5hPa WSW 5.0mph /  8km/h 13.0mph /  20.9km/h 34% 0.00in /  0mm
13:24 60.1 °F /  15.6 °C 31.6 °F /  -0.2 °C 30.11in /  1019.5hPa SW 7.0mph /  11.3km/h 10.0mph /  16.1km/h 34% 0.00in /  0mm
13:29 59.9 °F /  15.5 °C 29.2 °F /  -1.6 °C 30.11in /  1019.5hPa WSW 8.0mph /  12.9km/h 11.0mph /  17.7km/h 31% 0.00in /  0mm
13:34 60.0 °F /  15.6 °C 31.5 °F /  -0.3 °C 30.11in /  1019.5hPa WSW 5.0mph /  8km/h 10.0mph /  16.1km/h 34% 0.00in /  0mm
13:39 60.0 °F /  15.6 °C 32.2 °F /  0.1 °C 30.11in /  1019.5hPa West 5.0mph /  8km/h 10.0mph /  16.1km/h 35% 0.00in /  0mm
13:44 60.0 °F /  15.6 °C 30.0 °F /  -1.1 °C 30.10in /  1019.2hPa WSW 6.0mph /  9.7km/h 10.0mph /  16.1km/h 32% 0.00in /  0mm
13:49 60.3 °F /  15.7 °C 30.3 °F /  -0.9 °C 30.10in /  1019.2hPa WSW 6.0mph /  9.7km/h 10.0mph /  16.1km/h 32% 0.00in /  0mm
13:54 60.4 °F /  15.8 °C 31.1 °F /  -0.5 °C 30.10in /  1019.2hPa WSW 5.0mph /  8km/h 11.0mph /  17.7km/h 33% 0.00in /  0mm
14:00 60.6 °F /  15.9 °C 32.8 °F /  0.4 °C 30.09in /  1018.8hPa WSW 5.0mph /  8km/h 11.0mph /  17.7km/h 35% 0.00in /  0mm
14:05 60.8 °F /  16 °C 30.7 °F /  -0.7 °C 30.09in /  1018.8hPa WSW 5.0mph /  8km/h 10.0mph /  16.1km/h 32% 0.00in /  0mm
14:10 60.9 °F /  16.1 °C 30.8 °F /  -0.7 °C 30.09in /  1018.8hPa WSW 5.0mph /  8km/h 9.0mph /  14.5km/h 32% 0.00in /  0mm
14:15 61.1 °F /  16.2 °C 31.8 °F /  -0.1 °C 30.09in /  1018.8hPa SSW 4.0mph /  6.4km/h 9.0mph /  14.5km/h 33% 0.00in /  0mm
14:20 61.6 °F /  16.4 °C 33.7 °F /  0.9 °C 30.09in /  1018.8hPa SW 5.0mph /  8km/h 9.0mph /  14.5km/h 35% 0.00in /  0mm
14:30 61.4 °F /  16.3 °C 32.8 °F /  0.4 °C 30.09in /  1018.8hPa SSW 3.0mph /  4.8km/h 8.0mph /  12.9km/h 34% 0.00in /  0mm
14:35 61.4 °F /  16.3 °C 33.5 °F /  0.8 °C 30.09in /  1018.8hPa South 6.0mph /  9.7km/h 10.0mph /  16.1km/h 35% 0.00in /  0mm
14:40 61.3 °F /  16.3 °C 31.2 °F /  -0.4 °C 30.09in /  1018.8hPa West 5.0mph /  8km/h 9.0mph /  14.5km/h 32% 0.00in /  0mm
14:45 62.0 °F /  16.7 °C 35.4 °F /  1.9 °C 30.09in /  1018.8hPa SW 5.0mph /  8km/h 9.0mph /  14.5km/h 37% 0.00in /  0mm
14:50 61.4 °F /  16.3 °C 31.3 °F /  -0.4 °C 30.09in /  1018.8hPa WSW 5.0mph /  8km/h 11.0mph /  17.7km/h 32% 0.00in /  0mm
14:55 61.2 °F /  16.2 °C 30.3 °F /  -0.9 °C 30.08in /  1018.5hPa SW 5.0mph /  8km/h 11.0mph /  17.7km/h 31% 0.00in /  0mm
15:00 61.4 °F /  16.3 °C 32.0 °F /  0 °C 30.08in /  1018.5hPa WSW 5.0mph /  8km/h 10.0mph /  16.1km/h 33% 0.00in /  0mm
15:05 62.2 °F /  16.8 °C 34.9 °F /  1.6 °C 30.08in /  1018.5hPa West 4.0mph /  6.4km/h 9.0mph /  14.5km/h 36% 0.00in /  0mm
15:10 62.1 °F /  16.7 °C 32.6 °F /  0.3 °C 30.07in /  1018.2hPa SW 5.0mph /  8km/h 8.0mph /  12.9km/h 33% 0.00in /  0mm
15:15 62.3 °F /  16.8 °C 32.0 °F /  0 °C 30.07in /  1018.2hPa SW 4.0mph /  6.4km/h 9.0mph /  14.5km/h 32% 0.00in /  0mm
15:20 61.9 °F /  16.6 °C 26.6 °F /  -3 °C 30.07in /  1018.2hPa SSW 5.0mph /  8km/h 8.0mph /  12.9km/h 26% 0.00in /  0mm
15:25 61.5 °F /  16.4 °C 28.9 °F /  -1.7 °C 30.07in /  1018.2hPa SW 6.0mph /  9.7km/h 10.0mph /  16.1km/h 29% 0.00in /  0mm
15:30 61.8 °F /  16.6 °C 27.4 °F /  -2.6 °C 30.07in /  1018.2hPa SW 4.0mph /  6.4km/h 10.0mph /  16.1km/h 27% 0.00in /  0mm
15:35 61.9 °F /  16.6 °C 30.9 °F /  -0.6 °C 30.07in /  1018.2hPa WSW 7.0mph /  11.3km/h 8.0mph /  12.9km/h 31% 0.00in /  0mm
15:40 61.7 °F /  16.5 °C 29.9 °F /  -1.2 °C 30.07in /  1018.2hPa WSW 2.0mph /  3.2km/h 11.0mph /  17.7km/h 30% 0.00in /  0mm
15:45 62.0 °F /  16.7 °C 29.3 °F /  -1.5 °C 30.07in /  1018.2hPa WSW 4.0mph /  6.4km/h 9.0mph /  14.5km/h 29% 0.00in /  0mm
15:50 62.3 °F /  16.8 °C 30.4 °F /  -0.9 °C 30.07in /  1018.2hPa WSW 4.0mph /  6.4km/h 10.0mph /  16.1km/h 30% 0.00in /  0mm
15:55 62.3 °F /  16.8 °C 26.0 °F /  -3.3 °C 30.07in /  1018.2hPa WSW 5.0mph /  8km/h 10.0mph /  16.1km/h 25% 0.00in /  0mm
16:00 61.9 °F /  16.6 °C 30.1 °F /  -1.1 °C 30.06in /  1017.8hPa WSW 5.0mph /  8km/h 11.0mph /  17.7km/h 30% 0.00in /  0mm
16:05 62.6 °F /  17 °C 29.0 °F /  -1.7 °C 30.06in /  1017.8hPa SW 5.0mph /  8km/h 9.0mph /  14.5km/h 28% 0.00in /  0mm
16:10 62.1 °F /  16.7 °C 28.6 °F /  -1.9 °C 30.07in /  1018.2hPa WSW 6.0mph /  9.7km/h 10.0mph /  16.1km/h 28% 0.00in /  0mm
16:15 61.3 °F /  16.3 °C 26.1 °F /  -3.3 °C 30.07in /  1018.2hPa WSW 2.0mph /  3.2km/h 10.0mph /  16.1km/h 26% 0.00in /  0mm
16:20 62.1 °F /  16.7 °C 31.9 °F /  -0.1 °C 30.07in /  1018.2hPa WSW 5.0mph /  8km/h 10.0mph /  16.1km/h 32% 0.00in /  0mm
16:25 61.6 °F /  16.4 °C 29.8 °F /  -1.2 °C 30.07in /  1018.2hPa WSW 5.0mph /  8km/h 10.0mph /  16.1km/h 30% 0.00in /  0mm
16:30 61.3 °F /  16.3 °C 27.9 °F /  -2.3 °C 30.07in /  1018.2hPa SW 6.0mph /  9.7km/h 10.0mph /  16.1km/h 28% 0.00in /  0mm
16:35 61.9 °F /  16.6 °C 30.9 °F /  -0.6 °C 30.07in /  1018.2hPa WSW 2.0mph /  3.2km/h 8.0mph /  12.9km/h 31% 0.00in /  0mm
16:40 61.5 °F /  16.4 °C 30.6 °F /  -0.8 °C 30.07in /  1018.2hPa West 6.0mph /  9.7km/h 10.0mph /  16.1km/h 31% 0.00in /  0mm
16:45 60.9 °F /  16.1 °C 29.2 °F /  -1.6 °C 30.07in /  1018.2hPa WSW 5.0mph /  8km/h 10.0mph /  16.1km/h 30% 0.00in /  0mm
16:50 60.9 °F /  16.1 °C 30.0 °F /  -1.1 °C 30.07in /  1018.2hPa WSW 6.0mph /  9.7km/h 10.0mph /  16.1km/h 31% 0.00in /  0mm
16:55 61.2 °F /  16.2 °C 32.6 °F /  0.3 °C 30.06in /  1017.8hPa SW 2.0mph /  3.2km/h 8.0mph /  12.9km/h 34% 0.00in /  0mm
17:00 61.3 °F /  16.3 °C 32.7 °F /  0.4 °C 30.06in /  1017.8hPa WSW 5.0mph /  8km/h 8.0mph /  12.9km/h 34% 0.00in /  0mm
17:05 60.9 °F /  16.1 °C 31.6 °F /  -0.2 °C 30.07in /  1018.2hPa WSW 4.0mph /  6.4km/h 8.0mph /  12.9km/h 33% 0.00in /  0mm
17:10 60.7 °F /  15.9 °C 30.6 °F /  -0.8 °C 30.07in /  1018.2hPa SW 5.0mph /  8km/h 9.0mph /  14.5km/h 32% 0.00in /  0mm
17:15 60.2 °F /  15.7 °C 28.6 °F /  -1.9 °C 30.07in /  1018.2hPa SW 7.0mph /  11.3km/h 9.0mph /  14.5km/h 30% 0.00in /  0mm
17:20 60.1 °F /  15.6 °C 28.5 °F /  -1.9 °C 30.07in /  1018.2hPa SW 5.0mph /  8km/h 10.0mph /  16.1km/h 30% 0.00in /  0mm
17:25 60.5 °F /  15.8 °C 29.7 °F /  -1.3 °C 30.07in /  1018.2hPa WSW 5.0mph /  8km/h 10.0mph /  16.1km/h 31% 0.00in /  0mm
17:30 60.8 °F /  16 °C 29.1 °F /  -1.6 °C 30.07in /  1018.2hPa SW 5.0mph /  8km/h 9.0mph /  14.5km/h 30% 0.00in /  0mm
17:40 61.0 °F /  16.1 °C 29.3 °F /  -1.5 °C 30.07in /  1018.2hPa West 3.0mph /  4.8km/h 8.0mph /  12.9km/h 30% 0.00in /  0mm
17:45 61.1 °F /  16.2 °C 29.4 °F /  -1.4 °C 30.07in /  1018.2hPa SSW 4.0mph /  6.4km/h 7.0mph /  11.3km/h 30% 0.00in /  0mm
17:50 61.2 °F /  16.2 °C 29.5 °F /  -1.4 °C 30.07in /  1018.2hPa SSW 4.0mph /  6.4km/h 6.0mph /  9.7km/h 30% 0.00in /  0mm
17:55 61.5 °F /  16.4 °C 28.9 °F /  -1.7 °C 30.06in /  1017.8hPa WSW 3.0mph /  4.8km/h 7.0mph /  11.3km/h 29% 0.00in /  0mm
18:00 61.4 °F /  16.3 °C 27.1 °F /  -2.7 °C 30.07in /  1018.2hPa WSW 3.0mph /  4.8km/h 8.0mph /  12.9km/h 27% 0.00in /  0mm
18:05 61.3 °F /  16.3 °C 26.1 °F /  -3.3 °C 30.07in /  1018.2hPa SW 5.0mph /  8km/h 7.0mph /  11.3km/h 26% 0.00in /  0mm
18:10 61.1 °F /  16.2 °C 25.9 °F /  -3.4 °C 30.07in /  1018.2hPa WSW 2.0mph /  3.2km/h 8.0mph /  12.9km/h 26% 0.00in /  0mm
18:15 60.8 °F /  16 °C 25.7 °F /  -3.5 °C 30.07in /  1018.2hPa West 3.0mph /  4.8km/h 8.0mph /  12.9km/h 26% 0.00in /  0mm
18:20 60.8 °F /  16 °C 23.7 °F /  -4.6 °C 30.07in /  1018.2hPa West 3.0mph /  4.8km/h 7.0mph /  11.3km/h 24% 0.00in /  0mm
18:25 60.8 °F /  16 °C 24.7 °F /  -4.1 °C 30.07in /  1018.2hPa West 3.0mph /  4.8km/h 7.0mph /  11.3km/h 25% 0.00in /  0mm
18:30 60.8 °F /  16 °C 25.7 °F /  -3.5 °C 30.07in /  1018.2hPa WSW 3.0mph /  4.8km/h 6.0mph /  9.7km/h 26% 0.00in /  0mm
18:35 60.7 °F /  15.9 °C 24.6 °F /  -4.1 °C 30.07in /  1018.2hPa SW 4.0mph /  6.4km/h 5.0mph /  8km/h 25% 0.00in /  0mm
18:40 60.6 °F /  15.9 °C 23.6 °F /  -4.7 °C 30.07in /  1018.2hPa SW 3.0mph /  4.8km/h 7.0mph /  11.3km/h 24% 0.00in /  0mm
18:45 60.6 °F /  15.9 °C 25.5 °F /  -3.6 °C 30.07in /  1018.2hPa SSW 3.0mph /  4.8km/h 6.0mph /  9.7km/h 26% 0.00in /  0mm
18:50 60.5 °F /  15.8 °C 24.5 °F /  -4.2 °C 30.07in /  1018.2hPa SW 4.0mph /  6.4km/h 6.0mph /  9.7km/h 25% 0.00in /  0mm
18:55 60.3 °F /  15.7 °C 27.0 °F /  -2.8 °C 30.07in /  1018.2hPa SSW 4.0mph /  6.4km/h 6.0mph /  9.7km/h 28% 0.00in /  0mm
19:00 60.0 °F /  15.6 °C 26.8 °F /  -2.9 °C 30.07in /  1018.2hPa SSW 2.0mph /  3.2km/h 7.0mph /  11.3km/h 28% 0.00in /  0mm
19:05 59.8 °F /  15.4 °C 29.1 °F /  -1.6 °C 30.07in /  1018.2hPa SW 4.0mph /  6.4km/h 5.0mph /  8km/h 31% 0.00in /  0mm
19:10 59.6 °F /  15.3 °C 28.9 °F /  -1.7 °C 30.07in /  1018.2hPa SW 3.0mph /  4.8km/h 5.0mph /  8km/h 31% 0.00in /  0mm
19:15 59.3 °F /  15.2 °C 29.4 °F /  -1.4 °C 30.07in /  1018.2hPa SW 3.0mph /  4.8km/h 6.0mph /  9.7km/h 32% 0.00in /  0mm
19:20 58.9 °F /  14.9 °C 29.1 °F /  -1.6 °C 30.07in /  1018.2hPa SW 3.0mph /  4.8km/h 6.0mph /  9.7km/h 32% 0.00in /  0mm
19:25 58.4 °F /  14.7 °C 27.9 °F /  -2.3 °C 30.07in /  1018.2hPa SSW 3.0mph /  4.8km/h 7.0mph /  11.3km/h 31% 0.00in /  0mm
19:30 58.0 °F /  14.4 °C 29.0 °F /  -1.7 °C 30.07in /  1018.2hPa SW 3.0mph /  4.8km/h 7.0mph /  11.3km/h 33% 0.00in /  0mm
19:35 57.5 °F /  14.2 °C 28.6 °F /  -1.9 °C 30.07in /  1018.2hPa SSW 3.0mph /  4.8km/h 5.0mph /  8km/h 33% 0.00in /  0mm
19:40 57.2 °F /  14 °C 29.1 °F /  -1.6 °C 30.06in /  1017.8hPa SW 2.0mph /  3.2km/h 5.0mph /  8km/h 34% 0.00in /  0mm
19:45 56.8 °F /  13.8 °C 30.1 °F /  -1.1 °C 30.06in /  1017.8hPa SW 2.0mph /  3.2km/h 5.0mph /  8km/h 36% 0.00in /  0mm
19:55 55.9 °F /  13.3 °C 30.6 °F /  -0.8 °C 30.06in /  1017.8hPa SW 1.0mph /  1.6km/h 4.0mph /  6.4km/h 38% 0.00in /  0mm
20:00 55.4 °F /  13 °C 29.5 °F /  -1.4 °C 30.06in /  1017.8hPa SW 2.0mph /  3.2km/h 3.0mph /  4.8km/h 37% 0.00in /  0mm
20:05 55.1 °F /  12.8 °C 29.3 °F /  -1.5 °C 30.06in /  1017.8hPa SW 2.0mph /  3.2km/h 3.0mph /  4.8km/h 37% 0.00in /  0mm
20:10 54.8 °F /  12.7 °C 28.3 °F /  -2.1 °C 30.06in /  1017.8hPa WSW 1.0mph /  1.6km/h 4.0mph /  6.4km/h 36% 0.00in /  0mm
20:15 54.3 °F /  12.4 °C 28.6 °F /  -1.9 °C 30.06in /  1017.8hPa WSW 1.0mph /  1.6km/h 4.0mph /  6.4km/h 37% 0.00in /  0mm
20:20 53.9 °F /  12.2 °C 29.5 °F /  -1.4 °C 30.06in /  1017.8hPa WSW 1.0mph /  1.6km/h 3.0mph /  4.8km/h 39% 0.00in /  0mm
20:25 53.5 °F /  11.9 °C 29.1 °F /  -1.6 °C 30.06in /  1017.8hPa WSW 1.0mph /  1.6km/h 2.0mph /  3.2km/h 39% 0.00in /  0mm
20:30 53.1 °F /  11.7 °C 30.0 °F /  -1.1 °C 30.06in /  1017.8hPa WSW 1.0mph /  1.6km/h 2.0mph /  3.2km/h 41% 0.00in /  0mm
20:35 52.8 °F /  11.6 °C 29.7 °F /  -1.3 °C 30.06in /  1017.8hPa Calm     41% 0.00in /  0mm
20:40 52.6 °F /  11.4 °C 30.1 °F /  -1.1 °C 30.06in /  1017.8hPa Calm     42% 0.00in /  0mm
20:45 52.2 °F /  11.2 °C 30.4 °F /  -0.9 °C 30.06in /  1017.8hPa Calm     43% 0.00in /  0mm
20:50 51.7 °F /  10.9 °C 31.0 °F /  -0.6 °C 30.06in /  1017.8hPa Calm   2.0mph /  3.2km/h 45% 0.00in /  0mm
20:55 51.3 °F /  10.7 °C 31.2 °F /  -0.4 °C 30.07in /  1018.2hPa South 3.0mph /  4.8km/h 3.0mph /  4.8km/h 46% 0.00in /  0mm
21:00 50.9 °F /  10.5 °C 31.4 °F /  -0.3 °C 30.07in /  1018.2hPa South 1.0mph /  1.6km/h 3.0mph /  4.8km/h 47% 0.00in /  0mm
21:05 50.6 °F /  10.3 °C 31.1 °F /  -0.5 °C 30.07in /  1018.2hPa Calm   2.0mph /  3.2km/h 47% 0.00in /  0mm
21:10 50.3 °F /  10.2 °C 31.8 °F /  -0.1 °C 30.08in /  1018.5hPa South 1.0mph /  1.6km/h 3.0mph /  4.8km/h 49% 0.00in /  0mm
21:15 49.9 °F /  9.9 °C 31.5 °F /  -0.3 °C 30.08in /  1018.5hPa South 1.0mph /  1.6km/h 3.0mph /  4.8km/h 49% 0.00in /  0mm
21:20 49.6 °F /  9.8 °C 31.7 °F /  -0.2 °C 30.08in /  1018.5hPa Calm   3.0mph /  4.8km/h 50% 0.00in /  0mm
21:25 49.3 °F /  9.6 °C 32.4 °F /  0.2 °C 30.08in /  1018.5hPa SSW 2.0mph /  3.2km/h 3.0mph /  4.8km/h 52% 0.00in /  0mm
21:30 49.0 °F /  9.4 °C 32.1 °F /  0.1 °C 30.08in /  1018.5hPa SW 3.0mph /  4.8km/h 4.0mph /  6.4km/h 52% 0.00in /  0mm
21:35 48.9 °F /  9.4 °C 32.5 °F /  0.3 °C 30.08in /  1018.5hPa SW 1.0mph /  1.6km/h 3.0mph /  4.8km/h 53% 0.00in /  0mm
21:40 48.7 °F /  9.3 °C 32.8 °F /  0.4 °C 30.08in /  1018.5hPa SW 1.0mph /  1.6km/h 3.0mph /  4.8km/h 54% 0.00in /  0mm
21:45 48.6 °F /  9.2 °C 32.7 °F /  0.4 °C 30.08in /  1018.5hPa SW 1.0mph /  1.6km/h 3.0mph /  4.8km/h 54% 0.00in /  0mm
21:50 48.3 °F /  9.1 °C 32.4 °F /  0.2 °C 30.08in /  1018.5hPa Calm   2.0mph /  3.2km/h 54% 0.00in /  0mm
21:55 48.1 °F /  8.9 °C 32.2 °F /  0.1 °C 30.09in /  1018.8hPa Calm     54% 0.00in /  0mm
22:00 47.8 °F /  8.8 °C 32.4 °F /  0.2 °C 30.09in /  1018.8hPa Calm     55% 0.00in /  0mm
22:05 47.5 °F /  8.6 °C 32.1 °F /  0.1 °C 30.09in /  1018.8hPa Calm     55% 0.00in /  0mm
22:10 47.3 °F /  8.5 °C 31.9 °F /  -0.1 °C 30.09in /  1018.8hPa Calm     55% 0.00in /  0mm
22:15 46.9 °F /  8.3 °C 32.0 °F /  0 °C 30.08in /  1018.5hPa Calm     56% 0.00in /  0mm
22:20 46.5 °F /  8.1 °C 32.1 °F /  0.1 °C 30.08in /  1018.5hPa Calm     57% 0.00in /  0mm
22:25 46.2 °F /  7.9 °C 31.8 °F /  -0.1 °C 30.08in /  1018.5hPa Calm     57% 0.00in /  0mm
22:30 46.0 °F /  7.8 °C 32.0 °F /  0 °C 30.09in /  1018.8hPa Calm     58% 0.00in /  0mm
22:35 45.7 °F /  7.6 °C 31.8 °F /  -0.1 °C 30.09in /  1018.8hPa Calm     58% 0.00in /  0mm
22:40 45.4 °F /  7.4 °C 32.3 °F /  0.2 °C 30.08in /  1018.5hPa Calm     60% 0.00in /  0mm
22:45 45.2 °F /  7.3 °C 32.1 °F /  0.1 °C 30.08in /  1018.5hPa Calm     60% 0.00in /  0mm
22:50 44.9 °F /  7.2 °C 32.3 °F /  0.2 °C 30.09in /  1018.8hPa Calm     61% 0.00in /  0mm
22:55 44.7 °F /  7.1 °C 32.5 °F /  0.3 °C 30.09in /  1018.8hPa Calm     62% 0.00in /  0mm
23:00 44.5 °F /  6.9 °C 32.3 °F /  0.2 °C 30.09in /  1018.8hPa Calm     62% 0.00in /  0mm
23:05 44.3 °F /  6.8 °C 32.5 °F /  0.3 °C 30.09in /  1018.8hPa Calm     63% 0.00in /  0mm
23:10 44.1 °F /  6.7 °C 32.3 °F /  0.2 °C 30.09in /  1018.8hPa Calm     63% 0.00in /  0mm
23:20 43.7 °F /  6.5 °C 32.3 °F /  0.2 °C 30.09in /  1018.8hPa Calm     64% 0.00in /  0mm
23:25 43.5 °F /  6.4 °C 32.5 °F /  0.3 °C 30.09in /  1018.8hPa Calm     65% 0.00in /  0mm
23:30 43.4 °F /  6.3 °C 32.8 °F /  0.4 °C 30.09in /  1018.8hPa Calm     66% 0.00in /  0mm
23:35 43.3 °F /  6.3 °C 32.7 °F /  0.4 °C 30.09in /  1018.8hPa Calm     66% 0.00in /  0mm
23:40 43.1 °F /  6.2 °C 32.9 °F /  0.5 °C 30.09in /  1018.8hPa Calm     67% 0.00in /  0mm
23:45 42.9 °F /  6.1 °C 33.1 °F /  0.6 °C 30.09in /  1018.8hPa Calm     68% 0.00in /  0mm
23:50 42.7 °F /  5.9 °C 32.9 °F /  0.5 °C 30.09in /  1018.8hPa Calm     68% 0.00in /  0mm
23:55 42.6 °F /  5.9 °C 33.1 °F /  0.6 °C 30.08in /  1018.5hPa Calm     69% 0.00in /  0mm
Buffalo, New York, USA
Compliments of Weather Underground - 2.25 mb